createdAt,value
2019-04-03T00:01:00.144Z,7.60
2019-04-03T00:03:29.835Z,7.50
2019-04-03T00:06:00.380Z,7.50
2019-04-03T00:08:31.113Z,7.50
2019-04-03T00:11:00.749Z,7.50
2019-04-03T00:13:30.437Z,7.50
2019-04-03T00:16:00.042Z,7.40
2019-04-03T00:18:29.642Z,7.40
2019-04-03T00:20:59.362Z,7.40
2019-04-03T00:23:29.123Z,7.30
2019-04-03T00:25:59.124Z,7.30
2019-04-03T00:28:28.893Z,7.20
2019-04-03T00:30:58.681Z,7.10
2019-04-03T00:33:28.273Z,7.00
2019-04-03T00:35:57.910Z,6.90
2019-04-03T00:38:27.541Z,6.90
2019-04-03T00:40:57.150Z,6.90
2019-04-03T00:43:26.869Z,6.90
2019-04-03T00:45:56.606Z,6.90
2019-04-03T00:48:26.344Z,6.80
2019-04-03T00:50:57.310Z,6.70
2019-04-03T00:53:27.628Z,6.60
2019-04-03T00:55:58.958Z,6.60
2019-04-03T00:58:42.587Z,6.50
2019-04-03T01:01:12.795Z,6.50
2019-04-03T01:03:42.637Z,6.40
2019-04-03T01:06:12.345Z,6.30
2019-04-03T01:08:42.994Z,6.20
2019-04-03T01:11:12.584Z,6.20
2019-04-03T01:13:42.181Z,6.20
2019-04-03T01:16:11.963Z,6.20
2019-04-03T01:18:41.640Z,6.10
2019-04-03T01:21:11.242Z,6.10
2019-04-03T01:23:40.858Z,6.00
2019-04-03T01:26:10.453Z,6.00
2019-04-03T01:28:41.959Z,6.00
2019-04-03T01:31:14.895Z,5.90
2019-04-03T01:33:46.873Z,5.80
2019-04-03T01:36:17.641Z,5.80
2019-04-03T01:38:49.723Z,5.70
2019-04-03T01:41:21.265Z,5.60
2019-04-03T01:43:53.844Z,5.50
2019-04-03T01:46:23.740Z,5.50
2019-04-03T01:48:54.329Z,5.40
2019-04-03T01:51:24.213Z,5.50
2019-04-03T01:53:54.150Z,5.40
2019-04-03T01:56:23.854Z,5.40
2019-04-03T01:58:53.466Z,5.40
2019-04-03T02:01:24.144Z,5.40
2019-04-03T02:03:53.766Z,5.40
2019-04-03T02:06:23.552Z,5.40
2019-04-03T02:08:53.277Z,5.40
2019-04-03T02:11:22.986Z,5.30
2019-04-03T02:13:52.639Z,5.30
2019-04-03T02:16:23.061Z,5.30
2019-04-03T02:18:53.752Z,5.20
2019-04-03T02:21:27.194Z,5.10
2019-04-03T02:23:56.142Z,5.10
2019-04-03T02:26:25.835Z,5.10
2019-04-03T02:28:55.534Z,5.10
2019-04-03T02:31:25.404Z,5.10
2019-04-03T02:33:55.173Z,5.20
2019-04-03T02:36:24.787Z,5.10
2019-04-03T02:38:54.860Z,5.10
2019-04-03T02:41:24.678Z,5.10
2019-04-03T02:43:54.323Z,5.10
2019-04-03T02:46:27.122Z,5.00
2019-04-03T02:48:55.215Z,5.00
2019-04-03T02:51:24.916Z,5.00
2019-04-03T02:53:54.715Z,5.00
2019-04-03T02:56:24.315Z,5.00
2019-04-03T02:58:55.048Z,4.90
2019-04-03T03:01:25.330Z,4.90
2019-04-03T03:03:55.165Z,4.90
2019-04-03T03:06:25.124Z,4.90
2019-04-03T03:08:55.252Z,4.90
2019-04-03T03:11:26.358Z,4.80
2019-04-03T03:13:56.399Z,4.80
2019-04-03T03:16:27.941Z,4.80
2019-04-03T03:19:00.871Z,4.80
2019-04-03T03:21:29.506Z,4.70
2019-04-03T03:24:00.271Z,4.70
2019-04-03T03:26:30.275Z,4.70
2019-04-03T03:29:15.728Z,4.60
2019-04-03T03:31:59.098Z,4.60
2019-04-03T03:34:06.026Z,4.60
2019-04-03T03:36:36.944Z,4.60
2019-04-03T03:39:10.353Z,4.50
2019-04-03T03:41:39.515Z,4.60
2019-04-03T03:44:10.274Z,4.60
2019-04-03T03:46:42.219Z,4.50
2019-04-03T03:49:16.204Z,4.60
2019-04-03T03:51:56.156Z,4.60
2019-04-03T03:54:28.266Z,4.60
2019-04-03T03:56:58.289Z,4.60
2019-04-03T03:59:27.989Z,4.60
2019-04-03T04:01:57.612Z,4.60
2019-04-03T04:04:27.333Z,4.50
2019-04-03T04:06:57.551Z,4.50
2019-04-03T04:09:27.735Z,4.40
2019-04-03T04:11:58.223Z,4.40
2019-04-03T04:14:28.418Z,4.40
2019-04-03T04:16:58.488Z,4.30
2019-04-03T04:19:30.648Z,4.30
2019-04-03T04:22:00.145Z,4.30
2019-04-03T04:24:29.858Z,4.30
2019-04-03T04:27:02.324Z,4.30
2019-04-03T04:29:31.517Z,4.30
2019-04-03T04:32:01.118Z,4.20
2019-04-03T04:34:30.745Z,4.30
2019-04-03T04:37:02.593Z,4.30
2019-04-03T04:39:33.354Z,4.30
2019-04-03T04:42:04.363Z,4.30
2019-04-03T04:44:34.602Z,4.30
2019-04-03T04:47:04.663Z,4.20
2019-04-03T04:49:34.465Z,4.10
2019-04-03T04:52:04.280Z,4.10
2019-04-03T04:54:33.910Z,4.10
2019-04-03T04:57:03.680Z,4.10
2019-04-03T04:59:35.886Z,4.10
2019-04-03T05:02:04.690Z,4.10
2019-04-03T05:04:34.533Z,4.10
2019-04-03T05:07:04.266Z,4.00
2019-04-03T05:09:34.867Z,4.10
2019-04-03T05:12:05.362Z,4.10
2019-04-03T05:14:35.082Z,4.10
2019-04-03T05:17:04.706Z,4.10
2019-04-03T05:19:34.325Z,4.10
2019-04-03T05:22:04.016Z,4.10
2019-04-03T05:24:33.775Z,4.10
2019-04-03T05:27:03.742Z,4.10
2019-04-03T05:29:34.772Z,4.10
2019-04-03T05:32:04.937Z,4.00
2019-04-03T05:34:34.721Z,4.10
2019-04-03T05:37:07.477Z,4.10
2019-04-03T05:39:37.330Z,4.20
2019-04-03T05:42:07.002Z,4.30
2019-04-03T05:44:36.610Z,4.30
2019-04-03T05:47:08.153Z,4.40
2019-04-03T05:49:37.721Z,4.50
2019-04-03T05:52:07.402Z,4.60
2019-04-03T05:54:39.596Z,4.60
2019-04-03T05:57:08.425Z,4.70
2019-04-03T05:59:38.250Z,4.80
2019-04-03T06:02:14.983Z,4.80
2019-04-03T06:04:40.746Z,4.90
2019-04-03T06:07:10.569Z,5.00
2019-04-03T06:09:40.175Z,5.10
2019-04-03T06:12:13.066Z,5.20
2019-04-03T06:14:41.289Z,5.20
2019-04-03T06:17:11.159Z,5.30
2019-04-03T06:19:40.904Z,5.30
2019-04-03T06:22:10.793Z,5.30
2019-04-03T06:24:40.475Z,5.50
2019-04-03T06:27:10.545Z,5.70
2019-04-03T06:29:40.667Z,5.80
2019-04-03T06:32:10.323Z,5.90
2019-04-03T06:34:42.468Z,6.40
2019-04-03T06:37:11.477Z,6.80
2019-04-03T06:39:41.146Z,6.90
2019-04-03T06:42:13.038Z,6.60
2019-04-03T06:44:42.118Z,6.60
2019-04-03T06:47:11.767Z,6.50
2019-04-03T06:49:41.366Z,6.60
2019-04-03T06:52:11.116Z,6.70
2019-04-03T06:54:40.906Z,6.70
2019-04-03T06:57:13.904Z,6.90
2019-04-03T06:59:43.417Z,6.70
2019-04-03T07:02:13.072Z,6.40
2019-04-03T07:04:42.894Z,6.30
2019-04-03T07:07:12.518Z,6.60
2019-04-03T07:09:42.371Z,7.00
2019-04-03T07:12:12.189Z,7.40
2019-04-03T07:14:42.244Z,7.50
2019-04-03T07:17:11.965Z,7.50
2019-04-03T07:19:41.606Z,7.50
2019-04-03T07:22:11.226Z,7.50
2019-04-03T07:24:40.869Z,7.40
2019-04-03T07:27:10.519Z,7.50
2019-04-03T07:29:40.186Z,7.60
2019-04-03T07:32:09.822Z,7.70
2019-04-03T07:34:39.662Z,7.90
2019-04-03T07:37:09.373Z,8.10
2019-04-03T07:39:38.978Z,8.10
2019-04-03T07:42:08.618Z,8.20
2019-04-03T07:44:38.315Z,8.20
2019-04-03T07:47:07.958Z,8.40
2019-04-03T07:49:37.684Z,8.30
2019-04-03T07:52:08.910Z,8.20
2019-04-03T07:54:38.566Z,8.00
2019-04-03T07:57:10.139Z,7.90
2019-04-03T07:59:39.521Z,7.90
2019-04-03T08:02:12.098Z,8.00
2019-04-03T08:04:40.501Z,7.90
2019-04-03T08:07:10.215Z,7.80
2019-04-03T08:09:39.851Z,7.90
2019-04-03T08:12:09.589Z,7.90
2019-04-03T08:14:41.108Z,7.70
2019-04-03T08:17:10.500Z,7.60
2019-04-03T08:19:40.236Z,7.50
2019-04-03T08:22:09.839Z,7.20
2019-04-03T08:24:40.143Z,7.10
2019-04-03T08:27:10.055Z,7.20
2019-04-03T08:29:39.742Z,7.20
2019-04-03T08:32:09.528Z,7.30
2019-04-03T08:34:39.144Z,7.50
2019-04-03T08:37:10.377Z,7.60
2019-04-03T08:39:40.147Z,7.90
2019-04-03T08:42:09.825Z,8.00
2019-04-03T08:44:39.457Z,8.10
2019-04-03T08:47:09.069Z,8.20
2019-04-03T08:49:38.697Z,8.30
2019-04-03T08:52:08.390Z,8.40
2019-04-03T08:54:38.316Z,8.60
2019-04-03T08:57:08.167Z,8.70
2019-04-03T08:59:37.999Z,8.50
2019-04-03T09:02:10.566Z,8.50
2019-04-03T09:04:39.089Z,8.50
2019-04-03T09:07:08.890Z,8.50
2019-04-03T09:09:38.562Z,8.40
2019-04-03T09:12:08.218Z,8.60
2019-04-03T09:14:38.948Z,8.70
2019-04-03T09:17:08.733Z,9.00
2019-04-03T09:19:41.097Z,9.40
2019-04-03T09:22:09.650Z,9.50
2019-04-03T09:24:39.281Z,9.40
2019-04-03T09:27:09.928Z,9.50
2019-04-03T09:29:40.295Z,9.30
2019-04-03T09:32:09.906Z,9.50
2019-04-03T09:34:39.594Z,9.70
2019-04-03T09:37:10.409Z,9.70
2019-04-03T09:39:40.008Z,9.80
2019-04-03T09:42:09.701Z,9.90
2019-04-03T09:44:39.595Z,9.90
2019-04-03T09:47:09.591Z,10.00
2019-04-03T09:49:42.307Z,9.90
2019-04-03T09:52:10.824Z,9.90
2019-04-03T09:54:40.620Z,9.90
2019-04-03T09:57:10.358Z,9.70
2019-04-03T09:59:40.089Z,9.50
2019-04-03T10:02:09.827Z,9.50
2019-04-03T10:04:39.882Z,9.60
2019-04-03T10:07:09.729Z,9.50
2019-04-03T10:09:41.137Z,9.40
2019-04-03T10:12:11.323Z,9.10
2019-04-03T10:14:41.071Z,9.00
2019-04-03T10:17:10.693Z,9.00
2019-04-03T10:19:40.318Z,8.90
2019-04-03T10:22:09.910Z,8.90
2019-04-03T10:24:39.690Z,8.80
2019-04-03T10:27:11.121Z,8.90
2019-04-03T10:29:40.960Z,8.70
2019-04-03T10:32:10.808Z,8.60
2019-04-03T10:34:40.529Z,8.60
2019-04-03T10:37:10.280Z,8.50
2019-04-03T10:39:43.715Z,8.50
2019-04-03T10:42:11.309Z,8.30
2019-04-03T10:44:41.072Z,8.10
2019-04-03T10:47:11.213Z,8.00
2019-04-03T10:49:40.911Z,8.10
2019-04-03T10:52:13.381Z,8.20
2019-04-03T10:54:42.886Z,8.40
2019-04-03T10:57:13.458Z,8.60
2019-04-03T10:59:43.086Z,8.80
2019-04-03T11:02:13.054Z,9.00
2019-04-03T11:04:44.149Z,9.10
2019-04-03T11:07:13.870Z,9.10
2019-04-03T11:09:43.497Z,8.90
2019-04-03T11:12:13.206Z,8.80
2019-04-03T11:14:42.801Z,8.80
2019-04-03T11:17:12.507Z,8.90
2019-04-03T11:19:44.139Z,9.10
2019-04-03T11:22:14.205Z,9.20
2019-04-03T11:24:45.431Z,9.50
2019-04-03T11:27:15.375Z,9.60
2019-04-03T11:29:44.994Z,9.70
2019-04-03T11:32:14.663Z,9.60
2019-04-03T11:34:44.489Z,9.40
2019-04-03T11:37:14.202Z,9.20
2019-04-03T11:39:44.062Z,9.10
2019-04-03T11:42:23.545Z,9.40
2019-04-03T11:44:46.471Z,9.40
2019-04-03T11:47:16.112Z,9.70
2019-04-03T11:49:45.783Z,10.00
2019-04-03T11:52:15.390Z,10.00
2019-04-03T11:54:46.062Z,10.00
2019-04-03T11:57:17.235Z,10.00
2019-04-03T11:59:47.829Z,10.20
2019-04-03T12:02:18.106Z,10.10
2019-04-03T12:04:48.122Z,10.00
2019-04-03T12:07:17.712Z,9.40
2019-04-03T12:09:47.393Z,9.10
2019-04-03T12:12:17.321Z,9.00
2019-04-03T12:14:49.064Z,9.20
2019-04-03T12:17:18.350Z,9.40
2019-04-03T12:19:47.969Z,9.70
2019-04-03T12:22:17.824Z,9.80
2019-04-03T12:24:47.577Z,9.90
2019-04-03T12:27:17.419Z,9.90
2019-04-03T12:29:47.067Z,10.00
2019-04-03T12:32:16.674Z,9.90
2019-04-03T12:34:46.483Z,9.80
2019-04-03T12:37:18.703Z,9.90
2019-04-03T12:39:47.501Z,9.90
2019-04-03T12:42:17.657Z,9.90
2019-04-03T12:44:47.847Z,9.90
2019-04-03T12:47:17.732Z,10.20
2019-04-03T12:49:48.514Z,10.20
2019-04-03T12:52:18.811Z,10.10
2019-04-03T12:54:49.646Z,10.10
2019-04-03T12:57:20.153Z,10.10
2019-04-03T12:59:50.091Z,9.90
2019-04-03T13:02:21.033Z,9.90
2019-04-03T13:04:51.455Z,10.10
2019-04-03T13:07:21.503Z,9.90
2019-04-03T13:09:51.246Z,10.00
2019-04-03T13:12:24.702Z,10.30
2019-04-03T13:14:53.731Z,10.40
2019-04-03T13:17:23.562Z,10.60
2019-04-03T13:19:53.264Z,10.80
2019-04-03T13:22:23.358Z,11.00
2019-04-03T13:24:53.257Z,11.00
2019-04-03T13:27:24.731Z,10.70
2019-04-03T13:29:55.974Z,10.80
2019-04-03T13:32:25.861Z,10.80
2019-04-03T13:34:56.687Z,10.60
2019-04-03T13:37:26.345Z,10.50
2019-04-03T13:39:56.291Z,10.40
2019-04-03T13:42:25.999Z,10.50
2019-04-03T13:44:56.506Z,10.80
2019-04-03T13:47:27.462Z,10.80
2019-04-03T13:49:57.413Z,10.80
2019-04-03T13:52:40.066Z,10.90
2019-04-03T13:55:06.979Z,11.10
2019-04-03T13:57:44.826Z,11.10
2019-04-03T14:00:21.769Z,11.00
2019-04-03T14:02:49.889Z,11.10
2019-04-03T14:05:21.949Z,11.20
2019-04-03T14:07:51.874Z,11.50
2019-04-03T14:10:27.814Z,11.50
2019-04-03T14:12:58.033Z,11.50
2019-04-03T14:15:27.867Z,11.40
2019-04-03T14:17:59.154Z,11.30
2019-04-03T14:20:31.161Z,11.40
2019-04-03T14:23:03.995Z,11.80
2019-04-03T14:25:37.221Z,11.90
2019-04-03T14:28:05.174Z,12.10
2019-04-03T14:30:35.398Z,12.00
2019-04-03T14:33:05.543Z,11.80
2019-04-03T14:35:48.725Z,11.80
2019-04-03T14:38:12.408Z,11.70
2019-04-03T14:40:43.507Z,11.70
2019-04-03T14:43:13.710Z,12.00
2019-04-03T14:45:45.137Z,12.50
2019-04-03T14:48:15.227Z,12.70
2019-04-03T14:50:45.430Z,13.00
2019-04-03T14:53:15.378Z,13.20
2019-04-03T14:55:48.823Z,13.30
2019-04-03T14:58:16.691Z,13.30
2019-04-03T15:00:48.527Z,13.20
2019-04-03T15:03:18.116Z,13.00
2019-04-03T15:05:48.060Z,12.90
2019-04-03T15:08:18.286Z,12.90
2019-04-03T15:10:50.094Z,12.80
2019-04-03T15:13:19.979Z,12.80
2019-04-03T15:15:49.904Z,12.80
2019-04-03T15:18:20.109Z,12.80
2019-04-03T15:20:51.373Z,12.90
2019-04-03T15:23:21.383Z,13.00
2019-04-03T15:25:52.785Z,12.90
2019-04-03T15:28:22.947Z,12.80
2019-04-03T15:30:53.116Z,12.70
2019-04-03T15:33:24.975Z,12.40
2019-04-03T15:35:55.391Z,12.10
2019-04-03T15:38:25.494Z,12.10
2019-04-03T15:40:58.235Z,12.00
2019-04-03T15:43:26.944Z,12.10
2019-04-03T15:45:58.030Z,12.00
2019-04-03T15:48:30.188Z,11.60
2019-04-03T15:51:00.727Z,11.50
2019-04-03T15:53:33.496Z,11.30
2019-04-03T15:56:03.944Z,11.30
2019-04-03T15:58:38.727Z,11.20
2019-04-03T16:01:19.404Z,11.00
2019-04-03T16:03:48.896Z,10.70
2019-04-03T16:06:18.440Z,10.50
2019-04-03T16:08:48.610Z,10.40
2019-04-03T16:11:18.514Z,10.20
2019-04-03T16:13:48.676Z,10.10
2019-04-03T16:16:18.528Z,10.10
2019-04-03T16:18:49.352Z,10.20
2019-04-03T16:21:21.435Z,10.30
2019-04-03T16:23:51.549Z,10.40
2019-04-03T16:26:23.881Z,10.40
2019-04-03T16:28:57.025Z,10.40
2019-04-03T16:31:27.196Z,10.40
2019-04-03T16:33:57.066Z,10.40
2019-04-03T16:36:27.106Z,10.40
2019-04-03T16:39:01.284Z,10.40
2019-04-03T16:41:32.781Z,10.30
2019-04-03T16:44:02.982Z,10.20
2019-04-03T16:46:34.729Z,10.10
2019-04-03T16:49:07.029Z,10.10
2019-04-03T16:51:37.173Z,10.00
2019-04-03T16:54:10.271Z,9.90
2019-04-03T16:56:39.370Z,10.00
2019-04-03T16:59:09.391Z,9.90
2019-04-03T17:01:39.625Z,9.80
2019-04-03T17:04:10.455Z,9.70
2019-04-03T17:06:40.622Z,9.60
2019-04-03T17:09:10.630Z,9.50
2019-04-03T17:11:43.515Z,9.40
2019-04-03T17:14:12.243Z,9.40
2019-04-03T17:16:42.334Z,9.40
2019-04-03T17:19:12.176Z,9.40
2019-04-03T17:21:42.205Z,9.50
2019-04-03T17:24:12.127Z,9.50
2019-04-03T17:26:48.788Z,9.50
2019-04-03T17:29:14.038Z,9.50
2019-04-03T17:31:44.672Z,9.50
2019-04-03T17:34:15.061Z,9.50
2019-04-03T17:36:45.354Z,9.50
2019-04-03T17:39:15.899Z,9.50
2019-04-03T17:41:46.128Z,9.30
2019-04-03T17:44:16.097Z,9.20
2019-04-03T17:46:48.607Z,9.20
2019-04-03T17:49:17.479Z,9.20
2019-04-03T17:51:47.527Z,9.20
2019-04-03T17:54:17.597Z,9.00
2019-04-03T17:56:47.427Z,9.00
2019-04-03T17:59:18.413Z,8.90
2019-04-03T18:01:50.634Z,8.70
2019-04-03T18:04:21.589Z,8.70
2019-04-03T18:06:51.541Z,8.70
2019-04-03T18:09:21.333Z,8.60
2019-04-03T18:11:51.017Z,8.50
2019-04-03T18:14:21.014Z,8.50
2019-04-03T18:16:51.290Z,8.50
2019-04-03T18:19:36.514Z,8.40
2019-04-03T18:22:01.022Z,8.30
2019-04-03T18:24:33.131Z,8.40
2019-04-03T18:27:03.256Z,8.40
2019-04-03T18:29:37.303Z,8.40
2019-04-03T18:32:05.048Z,8.40
2019-04-03T18:34:35.035Z,8.40
2019-04-03T18:37:07.317Z,8.30
2019-04-03T18:39:36.609Z,8.30
2019-04-03T18:42:06.798Z,8.30
2019-04-03T18:44:38.027Z,8.30
2019-04-03T18:47:07.990Z,8.40
2019-04-03T18:49:38.253Z,8.20
2019-04-03T18:52:08.637Z,7.90
2019-04-03T18:54:42.429Z,7.70
2019-04-03T18:57:17.129Z,7.50
2019-04-03T18:59:49.146Z,7.30
2019-04-03T19:02:18.907Z,7.10
2019-04-03T19:05:01.232Z,6.80
2019-04-03T19:07:22.313Z,6.80
2019-04-03T19:09:52.633Z,6.80
2019-04-03T19:12:34.930Z,6.80
2019-04-03T19:14:56.517Z,6.80
2019-04-03T19:17:26.616Z,6.90
2019-04-03T19:20:09.705Z,6.90
2019-04-03T19:22:27.878Z,6.80
2019-04-03T19:24:58.759Z,6.90
2019-04-03T19:27:29.152Z,6.80
2019-04-03T19:30:00.966Z,6.80
2019-04-03T19:32:31.334Z,6.90
2019-04-03T19:35:01.307Z,6.90
2019-04-03T19:37:33.471Z,6.90
2019-04-03T19:40:02.804Z,6.80
2019-04-03T19:42:32.668Z,6.70
2019-04-03T19:45:02.558Z,6.70
2019-04-03T19:47:32.548Z,6.60
2019-04-03T19:50:02.412Z,6.60
2019-04-03T19:52:32.516Z,6.50
2019-04-03T19:55:02.240Z,6.30
2019-04-03T19:57:32.164Z,6.20
2019-04-03T20:00:03.129Z,6.00
2019-04-03T20:02:37.845Z,5.80
2019-04-03T20:05:06.690Z,5.70
2019-04-03T20:07:37.338Z,5.60
2019-04-03T20:10:08.537Z,5.70
2019-04-03T20:12:38.422Z,5.60
2019-04-03T20:15:11.321Z,5.60
2019-04-03T20:17:41.197Z,5.60
2019-04-03T20:20:11.233Z,5.50
2019-04-03T20:22:42.632Z,5.50
2019-04-03T20:25:15.162Z,5.50
2019-04-03T20:27:47.224Z,5.50
2019-04-03T20:30:16.477Z,5.50
2019-04-03T20:32:46.189Z,5.50
2019-04-03T20:35:18.636Z,5.50
2019-04-03T20:37:48.236Z,5.50
2019-04-03T20:40:18.012Z,5.50
2019-04-03T20:42:47.608Z,5.40
2019-04-03T20:45:19.057Z,5.40
2019-04-03T20:47:48.663Z,5.40
2019-04-03T20:50:18.445Z,5.40
2019-04-03T20:52:48.075Z,5.40
2019-04-03T20:55:17.681Z,5.40
2019-04-03T20:57:55.439Z,5.40
2019-04-03T21:00:19.447Z,5.40
2019-04-03T21:02:49.050Z,5.30
2019-04-03T21:05:18.941Z,5.30
2019-04-03T21:07:48.678Z,5.30
2019-04-03T21:10:18.376Z,5.30
2019-04-03T21:12:48.058Z,5.30
2019-04-03T21:15:17.658Z,5.30
2019-04-03T21:17:49.741Z,5.20
2019-04-03T21:20:18.697Z,5.20
2019-04-03T21:22:48.494Z,5.10
2019-04-03T21:25:18.093Z,5.10
2019-04-03T21:27:47.706Z,5.10
2019-04-03T21:30:17.595Z,5.00
2019-04-03T21:32:47.252Z,4.90
2019-04-03T21:35:16.864Z,4.90
2019-04-03T21:37:46.466Z,4.90
2019-04-03T21:40:16.259Z,4.90
2019-04-03T21:42:45.852Z,4.90
2019-04-03T21:45:15.558Z,4.90
2019-04-03T21:47:45.194Z,4.90
2019-04-03T21:50:15.037Z,4.90
2019-04-03T21:52:44.640Z,4.90
2019-04-03T21:55:14.319Z,4.90
2019-04-03T21:57:43.967Z,4.80
2019-04-03T22:00:18.716Z,4.80
2019-04-03T22:02:50.042Z,4.70
2019-04-03T22:05:19.722Z,4.70
2019-04-03T22:07:49.373Z,4.70
2019-04-03T22:10:19.974Z,4.60
2019-04-03T22:12:49.579Z,4.50
2019-04-03T22:15:20.270Z,4.50
2019-04-03T22:17:52.421Z,4.40
2019-04-03T22:20:21.433Z,4.50
2019-04-03T22:22:51.058Z,4.40
2019-04-03T22:25:20.744Z,4.40
2019-04-03T22:27:50.362Z,4.50
2019-04-03T22:30:21.743Z,4.40
2019-04-03T22:32:51.301Z,4.40
2019-04-03T22:35:20.934Z,4.40
2019-04-03T22:37:50.540Z,4.30
2019-04-03T22:40:20.141Z,4.30
2019-04-03T22:42:49.753Z,4.30
2019-04-03T22:45:20.099Z,4.30
2019-04-03T22:47:50.276Z,4.30
2019-04-03T22:50:19.895Z,4.30
2019-04-03T22:52:49.526Z,4.30
2019-04-03T22:55:19.162Z,4.40
2019-04-03T22:57:50.331Z,4.40
2019-04-03T23:00:20.202Z,4.40
2019-04-03T23:02:49.818Z,4.40
2019-04-03T23:05:19.498Z,4.40
2019-04-03T23:07:51.679Z,4.30
2019-04-03T23:10:21.633Z,4.20
2019-04-03T23:12:51.242Z,4.10
2019-04-03T23:15:20.849Z,4.10
2019-04-03T23:17:50.469Z,4.10
2019-04-03T23:20:21.957Z,4.10
2019-04-03T23:22:51.384Z,4.10
2019-04-03T23:25:21.058Z,4.10
2019-04-03T23:27:50.700Z,4.00
2019-04-03T23:30:20.448Z,4.10
2019-04-03T23:32:50.451Z,4.10
2019-04-03T23:35:21.111Z,4.00
2019-04-03T23:37:50.918Z,4.00
2019-04-03T23:40:20.620Z,4.00
2019-04-03T23:42:50.249Z,3.90
2019-04-03T23:45:20.554Z,3.90
2019-04-03T23:47:50.170Z,3.90
2019-04-03T23:50:19.981Z,3.90
2019-04-03T23:52:51.278Z,3.90
2019-04-03T23:55:21.017Z,3.90
2019-04-03T23:57:50.632Z,3.90
